Terminal Aerodrome Forecast
Issued by NWS Twin Cities, MN

Home | Current Version | Previous Version | Text Only | Print | Product List | Glossary On
Versions: 1 2 3 4 5 6 7 8 9 10 11 12 13
996
FTUS43 KMPX 201139
TAFEAU
TAF
KEAU 201139Z 2012/2112 24004KT 1/4SM FG SCT250
     FM201400 25003KT P6SM OVC100
      TEMPO 2014/2015 2SM BR
     FM210400 00000KT P6SM BKN030=

USA.gov is the U.S. government's official web portal to all federal, state and local government web resources and services.